createdAt,value
2022-10-11T04:01:49.509Z,69.59
2022-10-11T04:04:51.997Z,69.59
2022-10-11T04:07:54.029Z,72.12
2022-10-11T04:10:56.337Z,71.26
2022-10-11T04:13:58.575Z,71.50
2022-10-11T04:17:00.866Z,69.93
2022-10-11T04:20:03.195Z,69.75
2022-10-11T04:23:05.591Z,69.24
2022-10-11T04:26:09.181Z,68.47
2022-10-11T04:29:11.828Z,69.48
2022-10-11T04:32:13.866Z,68.95
2022-10-11T04:35:16.305Z,68.56
2022-10-11T04:38:18.331Z,68.75
2022-10-11T04:41:20.626Z,70.41
2022-10-11T04:44:22.702Z,70.47
2022-10-11T04:47:25.137Z,70.82
2022-10-11T04:50:27.209Z,70.32
2022-10-11T04:53:32.606Z,70.90
2022-10-11T04:56:34.652Z,68.24
2022-10-11T04:59:36.983Z,68.36
2022-10-11T05:02:39.042Z,68.71
2022-10-11T05:05:41.354Z,70.39
2022-10-11T05:08:43.415Z,69.48
2022-10-11T05:11:45.769Z,68.88
2022-10-11T05:14:47.837Z,68.42
2022-10-11T05:17:50.127Z,68.36
2022-10-11T05:21:19.723Z,68.60
2022-10-11T05:24:22.021Z,68.00
2022-10-11T05:27:24.046Z,68.67
2022-10-11T05:30:26.487Z,67.45
2022-10-11T05:33:28.544Z,66.70
2022-10-11T05:36:31.091Z,67.53
2022-10-11T05:39:33.103Z,67.46
2022-10-11T05:42:35.388Z,66.99
2022-10-11T05:45:39.114Z,68.16
2022-10-11T05:48:41.410Z,68.35
2022-10-11T05:51:44.158Z,66.43
2022-10-11T05:54:46.446Z,66.36
2022-10-11T05:57:48.485Z,65.82
2022-10-11T06:00:50.878Z,65.64
2022-10-11T06:03:53.674Z,67.54
2022-10-11T06:06:55.726Z,67.62
2022-10-11T06:09:58.033Z,65.09
2022-10-11T06:13:00.184Z,64.23
2022-10-11T06:16:06.544Z,64.33
2022-10-11T06:19:09.230Z,64.42
2022-10-11T06:22:12.359Z,63.19
2022-10-11T06:25:14.422Z,63.32
2022-10-11T06:28:16.780Z,62.53
2022-10-11T06:31:18.838Z,61.10
2022-10-11T06:34:21.461Z,61.75
2022-10-11T06:37:23.472Z,60.73
2022-10-11T06:40:25.782Z,61.49
2022-10-11T06:43:28.003Z,63.30
2022-10-11T06:46:31.584Z,60.69
2022-10-11T06:49:33.998Z,60.51
2022-10-11T06:52:36.690Z,61.56
2022-10-11T06:55:39.584Z,62.24
2022-10-11T06:58:42.012Z,61.60
2022-10-11T07:01:44.181Z,63.04
2022-10-11T07:04:46.532Z,61.72
2022-10-11T07:07:48.566Z,61.50
2022-10-11T07:10:51.504Z,62.64
2022-10-11T07:13:59.318Z,59.93
2022-10-11T07:17:01.616Z,61.61
2022-10-11T07:20:04.206Z,60.82
2022-10-11T07:23:06.518Z,60.90
2022-10-11T07:26:10.512Z,60.30
2022-10-11T07:29:13.108Z,60.65
2022-10-11T07:32:16.415Z,60.83
2022-10-11T07:35:18.904Z,61.93
2022-10-11T07:38:20.941Z,61.79
2022-10-11T07:41:24.060Z,61.71
2022-10-11T07:44:26.329Z,60.99
2022-10-11T07:47:28.783Z,60.48
2022-10-11T07:50:31.020Z,59.91
2022-10-11T07:53:44.796Z,59.95
2022-10-11T07:56:46.830Z,60.52
2022-10-11T07:59:50.362Z,60.31
2022-10-11T08:02:52.569Z,59.64
2022-10-11T08:06:00.260Z,60.09
2022-10-11T08:09:02.707Z,60.39
2022-10-11T08:12:05.101Z,60.13
2022-10-11T08:15:07.512Z,60.97
2022-10-11T08:18:09.811Z,61.60
2022-10-11T08:21:13.898Z,60.98
2022-10-11T08:24:20.617Z,61.23
2022-10-11T08:27:22.694Z,61.69
2022-10-11T08:30:25.115Z,63.30
2022-10-11T08:33:27.293Z,62.10
2022-10-11T08:36:29.606Z,60.77
2022-10-11T08:39:32.214Z,60.72
2022-10-11T08:42:45.482Z,60.93
2022-10-11T08:45:52.501Z,61.27
2022-10-11T08:48:55.303Z,60.48
2022-10-11T08:52:02.584Z,61.26
2022-10-11T08:55:08.240Z,60.98
2022-10-11T08:58:15.094Z,60.56
2022-10-11T09:01:22.309Z,59.79
2022-10-11T09:04:24.413Z,60.41
2022-10-11T09:07:44.750Z,61.05
2022-10-11T09:11:35.006Z,60.90
2022-10-11T09:14:55.389Z,60.49
2022-10-11T09:18:19.167Z,60.04
2022-10-11T09:22:12.906Z,60.88
2022-10-11T09:25:55.897Z,60.38
2022-10-11T09:29:16.888Z,60.94
2022-10-11T09:32:23.918Z,61.63
2022-10-11T09:35:31.928Z,62.46
2022-10-11T09:38:41.930Z,62.25
2022-10-11T09:42:07.729Z,63.06
2022-10-11T09:45:21.057Z,64.60
2022-10-11T09:48:27.482Z,63.71
2022-10-11T09:51:29.995Z,63.66
2022-10-11T09:54:43.561Z,63.16
2022-10-11T09:57:54.998Z,62.68
2022-10-11T10:01:11.833Z,62.00
2022-10-11T10:04:19.294Z,62.82
2022-10-11T10:07:22.790Z,63.07
2022-10-11T10:10:27.210Z,62.81
2022-10-11T10:13:40.718Z,62.92
2022-10-11T10:16:43.215Z,63.64
2022-10-11T10:19:52.053Z,63.18
2022-10-11T10:22:54.491Z,62.98
2022-10-11T10:26:13.652Z,63.25
2022-10-11T10:29:18.516Z,62.46
2022-10-11T10:32:28.118Z,62.50
2022-10-11T10:35:52.082Z,63.08
2022-10-11T10:39:01.564Z,62.34
2022-10-11T10:42:11.257Z,62.32
2022-10-11T10:45:21.390Z,62.94
2022-10-11T10:49:01.981Z,62.24
2022-10-11T10:52:05.286Z,62.41
2022-10-11T10:55:22.834Z,62.59
2022-10-11T10:58:47.891Z,62.26
2022-10-11T11:02:35.486Z,61.67
2022-10-11T11:05:45.692Z,61.43
2022-10-11T11:08:48.429Z,62.48
2022-10-11T11:12:07.560Z,63.13
2022-10-11T11:15:32.520Z,62.32
2022-10-11T11:19:23.982Z,61.29
2022-10-11T11:22:42.904Z,61.32
2022-10-11T11:26:07.807Z,62.88
2022-10-11T11:29:36.617Z,61.53
2022-10-11T11:32:45.545Z,62.97
2022-10-11T11:35:55.585Z,61.96
2022-10-11T11:39:01.849Z,61.66
2022-10-11T11:42:13.629Z,62.43
2022-10-11T11:45:23.560Z,63.01
2022-10-11T11:48:26.558Z,62.44
2022-10-11T11:51:33.937Z,61.21
2022-10-11T11:54:48.419Z,61.47
2022-10-11T11:58:29.327Z,61.68
2022-10-11T12:02:29.318Z,62.76
2022-10-11T12:05:36.281Z,61.52
2022-10-11T12:08:42.054Z,60.41
2022-10-11T12:12:07.045Z,60.15
2022-10-11T12:15:09.081Z,59.95
2022-10-11T12:18:16.871Z,60.45
2022-10-11T12:21:35.015Z,61.90
2022-10-11T12:24:55.432Z,60.98
2022-10-11T12:28:00.246Z,60.17
2022-10-11T12:31:17.249Z,61.00
2022-10-11T12:34:35.834Z,60.31
2022-10-11T12:38:04.485Z,61.79
2022-10-11T12:41:09.282Z,61.83
2022-10-11T12:44:30.893Z,64.32
2022-10-11T12:47:55.472Z,61.24
2022-10-11T12:51:16.269Z,60.90
2022-10-11T12:54:30.036Z,60.12
2022-10-11T12:58:07.471Z,60.36
2022-10-11T13:01:14.097Z,59.76
2022-10-11T13:04:20.456Z,60.77
2022-10-11T13:07:23.610Z,60.39
2022-10-11T13:10:35.799Z,61.27
2022-10-11T13:14:14.863Z,60.14
2022-10-11T13:17:21.905Z,60.69
2022-10-11T13:20:26.189Z,62.38
2022-10-11T13:23:34.775Z,61.10
2022-10-11T13:26:38.878Z,61.05
2022-10-11T13:29:44.909Z,61.77
2022-10-11T13:32:47.600Z,62.01
2022-10-11T13:35:51.079Z,62.34
2022-10-11T13:38:59.510Z,61.95
2022-10-11T13:42:06.009Z,62.32
2022-10-11T13:45:16.945Z,62.59
2022-10-11T13:48:19.272Z,63.00
2022-10-11T13:51:35.983Z,64.35
2022-10-11T13:55:03.631Z,63.79
2022-10-11T13:58:35.663Z,64.40
2022-10-11T14:01:40.437Z,64.33
2022-10-11T14:04:42.847Z,63.60
2022-10-11T14:07:47.851Z,62.17
2022-10-11T14:10:56.379Z,63.07
2022-10-11T14:13:59.411Z,64.15
2022-10-11T14:17:05.873Z,64.87
2022-10-11T14:20:30.802Z,65.42
2022-10-11T14:23:35.340Z,62.53
2022-10-11T14:26:52.889Z,62.05
2022-10-11T14:30:20.343Z,62.02
2022-10-11T14:33:25.876Z,63.16
2022-10-11T14:36:28.228Z,62.98
2022-10-11T14:39:31.996Z,64.56
2022-10-11T14:42:34.283Z,64.92
2022-10-11T14:45:37.140Z,64.23
2022-10-11T14:48:56.200Z,64.88
2022-10-11T14:51:59.076Z,64.60
2022-10-11T14:55:01.849Z,64.49
2022-10-11T14:58:04.935Z,65.18
2022-10-11T15:01:10.522Z,64.62
2022-10-11T15:04:13.367Z,65.09
2022-10-11T15:07:15.660Z,64.65
2022-10-11T15:10:23.493Z,66.02
2022-10-11T15:13:25.878Z,66.52
2022-10-11T15:16:27.943Z,65.78
2022-10-11T15:19:30.238Z,66.00
2022-10-11T15:22:32.271Z,65.67
2022-10-11T15:25:34.953Z,65.90
2022-10-11T15:28:37.124Z,66.16
2022-10-11T15:31:39.565Z,66.11
2022-10-11T15:34:41.589Z,66.10
2022-10-11T15:37:44.352Z,66.01
2022-10-11T15:40:47.945Z,66.28
2022-10-11T15:43:50.626Z,66.33
